Time;durP1;ratioP1;P1;durP2;ratioP2;P2;SDS_P1;SDS_P2;PMS_P1;PMS_P2;Temp;Humidity;BMP_temperature;BMP_pressure;BME280_temperature;BME280_humidity;BME280_pressure;Samples;Min_cycle;Max_cycle;Signal;HPM_P1;HPM_P2
2022/01/28 00:00:15;;;;;;;12.63;5.70;;;4.10;99.70;;;;;;5072447;28;20447;-68
2022/01/28 00:02:59;;;;;;;13.10;5.47;;;4.10;99.70;;;;;;5073179;28;20454;-67
2022/01/28 00:05:26;;;;;;;12.73;5.77;;;4.00;99.70;;;;;;5072712;28;20451;-67
2022/01/28 00:07:54;;;;;;;12.77;5.83;;;3.90;99.70;;;;;;5072462;28;20950;-68
2022/01/28 00:10:23;;;;;;;14.87;6.30;;;3.80;99.70;;;;;;5073029;28;20442;-68
2022/01/28 00:13:16;;;;;;;59.00;18.30;;;3.80;99.70;;;;;;5072845;28;20449;-68
2022/01/28 00:15:55;;;;;;;18.97;7.10;;;3.60;99.70;;;;;;5072801;28;20458;-68
2022/01/28 00:19:02;;;;;;;22.37;7.27;;;3.70;99.70;;;;;;5072208;28;20501;-68
2022/01/28 00:40:41;;;;;;;13.77;5.90;;;3.90;99.70;;;;;;5072391;28;20430;-67
2022/01/28 00:43:08;;;;;;;13.80;6.20;;;3.90;99.70;;;;;;5072195;28;20443;-67
2022/01/28 00:45:35;;;;;;;13.03;5.80;;;3.90;99.70;;;;;;5072242;28;20446;-68
2022/01/28 00:48:01;;;;;;;16.00;6.10;;;4.00;99.70;;;;;;5071668;28;20442;-67
2022/01/28 00:50:29;;;;;;;15.10;6.43;;;4.00;99.70;;;;;;5072049;28;20439;-67
2022/01/28 00:52:56;;;;;;;14.10;5.43;;;4.10;99.70;;;;;;5071978;28;20861;-67
2022/01/28 00:55:23;;;;;;;15.47;6.03;;;4.00;99.70;;;;;;5072011;28;20442;-67
2022/01/28 00:57:50;;;;;;;13.87;6.10;;;4.10;99.70;;;;;;5071387;28;20489;-67
2022/01/28 01:00:17;;;;;;;12.53;5.43;;;4.00;99.70;;;;;;5071957;28;20443;-67
2022/01/28 01:02:43;;;;;;;13.40;6.20;;;4.10;99.70;;;;;;5071743;28;20443;-67
2022/01/28 01:05:10;;;;;;;13.17;5.30;;;4.10;99.70;;;;;;5071482;28;20450;-67
2022/01/28 01:07:39;;;;;;;12.97;5.93;;;4.10;99.70;;;;;;5071781;28;20466;-68
2022/01/28 01:10:08;;;;;;;12.90;5.57;;;4.10;99.70;;;;;;5071775;28;20487;-67
2022/01/28 01:12:40;;;;;;;11.43;5.30;;;4.10;99.70;;;;;;5071743;28;20802;-68
2022/01/28 01:15:08;;;;;;;15.00;5.43;;;4.10;99.70;;;;;;5071650;28;21015;-67
2022/01/28 01:17:38;;;;;;;11.83;5.40;;;4.10;99.70;;;;;;5071483;28;20489;-67
2022/01/28 01:20:17;;;;;;;11.17;5.40;;;4.10;99.70;;;;;;5071469;28;20455;-67
2022/01/28 01:22:52;;;;;;;12.87;5.10;;;4.10;99.70;;;;;;5071477;28;21055;-68
2022/01/28 01:25:26;;;;;;;11.83;5.40;;;4.00;99.70;;;;;;5071493;28;20828;-67
2022/01/28 01:27:57;;;;;;;12.33;5.83;;;4.10;99.70;;;;;;5071217;28;20481;-67
2022/01/28 01:30:25;;;;;;;11.90;5.50;;;4.00;99.70;;;;;;5071446;28;20442;-68
2022/01/28 01:32:52;;;;;;;14.30;5.60;;;3.90;99.70;;;;;;5071397;28;20534;-68
2022/01/28 01:35:19;;;;;;;13.63;5.40;;;3.90;99.70;;;;;;5071423;28;20451;-68
2022/01/28 01:37:47;;;;;;;12.27;5.57;;;3.90;99.70;;;;;;5070831;28;20483;-68
2022/01/28 01:40:20;;;;;;;13.50;5.07;;;3.80;99.70;;;;;;5071275;28;20465;-68
2022/01/28 01:42:51;;;;;;;12.60;5.63;;;3.80;99.70;;;;;;5071232;28;20470;-68
2022/01/28 01:53:35;;;;;;;13.40;5.70;;;3.60;99.70;;;;;;5071417;28;20971;-67
2022/01/28 01:56:02;;;;;;;14.37;5.70;;;3.60;99.70;;;;;;5070975;28;20461;-68
2022/01/28 01:58:31;;;;;;;13.40;5.60;;;3.50;99.70;;;;;;5070560;28;20862;-68
2022/01/28 02:01:00;;;;;;;13.23;5.90;;;3.60;99.70;;;;;;5070943;28;20447;-67
2022/01/28 02:03:27;;;;;;;10.50;4.83;;;3.50;99.70;;;;;;5070820;28;20443;-68
2022/01/28 02:05:56;;;;;;;13.27;5.57;;;3.50;99.70;;;;;;5070687;28;20462;-67
2022/01/28 02:08:23;;;;;;;13.80;5.30;;;3.50;99.70;;;;;;5070602;28;20467;-68
2022/01/28 02:10:51;;;;;;;11.67;5.50;;;3.50;99.70;;;;;;5070908;28;20449;-67
2022/01/28 02:13:18;;;;;;;11.47;5.47;;;3.50;99.70;;;;;;5070955;28;20926;-67
2022/01/28 02:15:44;;;;;;;12.80;5.47;;;3.50;99.70;;;;;;5070833;28;20452;-68
2022/01/28 02:18:11;;;;;;;12.60;5.37;;;3.70;99.70;;;;;;5070296;28;21016;-67
2022/01/28 02:20:43;;;;;;;15.53;7.03;;;3.70;99.70;;;;;;5070839;28;20465;-67
2022/01/28 02:23:09;;;;;;;15.03;5.83;;;3.70;99.70;;;;;;5072236;28;20892;-68
2022/01/28 02:25:36;;;;;;;14.00;5.80;;;3.70;99.70;;;;;;5074590;28;20443;-67
2022/01/28 02:28:06;;;;;;;12.50;5.50;;;3.70;99.70;;;;;;5074388;28;20937;-68
2022/01/28 02:30:34;;;;;;;12.80;6.30;;;3.60;99.70;;;;;;5074651;28;20447;-68
2022/01/28 02:33:09;;;;;;;13.43;5.47;;;3.60;99.70;;;;;;5074983;28;20438;-67
2022/01/28 02:35:36;;;;;;;11.57;5.40;;;3.60;99.70;;;;;;5074485;28;20446;-67
2022/01/28 02:38:04;;;;;;;13.20;5.60;;;3.50;99.70;;;;;;5074044;28;20478;-66
2022/01/28 02:40:31;;;;;;;12.93;5.43;;;3.50;99.70;;;;;;5074511;28;20458;-67
2022/01/28 02:43:03;;;;;;;13.73;5.27;;;3.50;99.70;;;;;;5074675;28;20456;-67
2022/01/28 02:45:33;;;;;;;13.30;5.87;;;3.50;99.70;;;;;;5074460;28;20442;-67
2022/01/28 02:48:03;;;;;;;14.67;5.37;;;3.50;99.70;;;;;;5074019;28;20499;-67
2022/01/28 02:50:36;;;;;;;13.97;5.47;;;3.40;99.70;;;;;;5074329;28;20450;-67
2022/01/28 02:53:07;;;;;;;12.70;5.83;;;3.40;99.70;;;;;;5074308;28;20537;-67
2022/01/28 02:55:39;;;;;;;15.37;5.13;;;3.50;99.70;;;;;;5074224;28;20528;-67
2022/01/28 02:58:18;;;;;;;12.50;5.40;;;3.50;99.70;;;;;;5073940;28;20475;-67
2022/01/28 03:00:46;;;;;;;11.53;5.27;;;3.50;99.70;;;;;;5074095;28;20955;-67
2022/01/28 03:03:14;;;;;;;13.20;5.67;;;3.40;99.70;;;;;;5074254;28;20482;-67
2022/01/28 03:05:41;;;;;;;14.33;5.40;;;3.30;99.70;;;;;;5073638;28;20486;-67
2022/01/28 03:08:09;;;;;;;11.40;5.10;;;3.20;99.70;;;;;;5073661;28;20844;-67
2022/01/28 03:10:49;;;;;;;12.43;5.40;;;3.40;99.70;;;;;;5074296;28;20450;-67
2022/01/28 03:13:29;;;;;;;11.83;5.13;;;3.30;99.70;;;;;;5074029;28;20823;-67
2022/01/28 03:16:07;;;;;;;13.17;5.50;;;3.30;99.70;;;;;;5073860;28;20527;-67
2022/01/28 03:18:43;;;;;;;14.53;5.37;;;3.40;99.70;;;;;;5073484;28;20485;-67
2022/01/28 03:21:21;;;;;;;9.30;4.70;;;3.40;99.70;;;;;;5073759;28;20450;-67
2022/01/28 03:23:50;;;;;;;12.70;4.90;;;3.50;99.70;;;;;;5073861;28;20469;-67
2022/01/28 03:26:17;;;;;;;14.57;5.03;;;3.60;99.70;;;;;;5073716;28;20474;-66
2022/01/28 03:28:44;;;;;;;12.50;5.33;;;3.60;99.70;;;;;;5073602;28;20435;-67
2022/01/28 03:31:11;;;;;;;17.17;5.70;;;3.60;99.70;;;;;;5073912;28;20443;-67
2022/01/28 03:33:38;;;;;;;12.63;5.70;;;3.60;99.70;;;;;;5073481;28;20442;-67
2022/01/28 03:36:08;;;;;;;13.83;4.70;;;3.60;99.70;;;;;;5072514;28;20466;-67
2022/01/28 03:38:35;;;;;;;11.90;4.53;;;3.60;99.70;;;;;;5072943;28;20478;-67
2022/01/28 03:41:04;;;;;;;14.50;4.80;;;3.60;99.70;;;;;;5073496;28;20451;-66
2022/01/28 03:43:31;;;;;;;10.47;4.80;;;3.60;99.70;;;;;;5073407;28;20457;-67
2022/01/28 03:45:57;;;;;;;11.87;5.10;;;3.60;99.70;;;;;;5073326;28;20467;-67
2022/01/28 03:48:24;;;;;;;10.93;4.77;;;3.60;99.70;;;;;;5073062;28;20817;-67
2022/01/28 03:50:51;;;;;;;11.43;4.50;;;3.60;99.70;;;;;;5073320;28;20446;-67
2022/01/28 03:53:18;;;;;;;12.53;5.40;;;3.50;99.70;;;;;;5073296;28;20442;-67
2022/01/28 03:55:46;;;;;;;9.67;4.67;;;3.50;99.70;;;;;;5073132;28;20446;-67
2022/01/28 03:58:14;;;;;;;14.27;5.70;;;3.60;99.70;;;;;;5072750;28;20475;-67
2022/01/28 04:00:41;;;;;;;12.23;4.83;;;3.60;99.70;;;;;;5073058;28;20450;-66
2022/01/28 04:03:11;;;;;;;11.50;4.97;;;3.60;99.70;;;;;;5073309;28;20458;-67
2022/01/28 04:11:24;;;;;;;13.57;5.23;;;3.60;99.70;;;;;;5072707;28;20475;-67
2022/01/28 04:11:31;;;;;;;13.87;5.80;;;3.60;99.70;;;;;;5072848;28;20418;-67
2022/01/28 04:14:09;;;;;;;10.97;4.60;;;3.60;99.70;;;;;;5072957;28;20533;-67
2022/01/28 04:19:16;;;;;;;10.73;5.03;;;3.60;99.70;;;;;;5072272;28;20506;-67
2022/01/28 04:21:43;;;;;;;13.43;4.83;;;3.70;99.70;;;;;;5072625;28;20930;-67
2022/01/28 04:24:10;;;;;;;13.87;5.10;;;3.70;99.70;;;;;;5072673;28;20450;-67
2022/01/28 04:26:36;;;;;;;13.30;4.80;;;3.70;99.70;;;;;;5073503;28;20470;-67
2022/01/28 04:29:04;;;;;;;12.40;4.80;;;3.70;99.70;;;;;;5072251;28;20435;-67
2022/01/28 04:31:31;;;;;;;10.97;4.90;;;3.80;99.70;;;;;;5072611;28;20496;-67
2022/01/28 04:34:00;;;;;;;12.00;5.20;;;3.80;99.70;;;;;;5072566;28;20450;-67
2022/01/28 04:36:30;;;;;;;13.83;4.90;;;3.80;99.70;;;;;;5072353;28;20467;-67
2022/01/28 04:39:02;;;;;;;10.33;5.03;;;3.80;99.70;;;;;;5071985;28;20875;-67
2022/01/28 04:41:37;;;;;;;10.07;4.90;;;3.80;99.70;;;;;;5072474;28;20447;-67
2022/01/28 04:44:12;;;;;;;13.57;5.93;;;3.70;99.70;;;;;;5072363;28;20954;-67
2022/01/28 04:46:45;;;;;;;12.37;5.20;;;3.60;99.70;;;;;;5071967;28;20472;-67
2022/01/28 04:49:17;;;;;;;11.40;4.70;;;3.60;99.70;;;;;;5071834;28;20447;-68
2022/01/28 04:51:56;;;;;;;13.17;4.80;;;3.50;99.70;;;;;;5072298;28;20956;-67
2022/01/28 04:54:40;;;;;;;10.93;5.03;;;3.60;99.70;;;;;;5072199;28;20450;-67
2022/01/28 04:57:18;;;;;;;13.50;5.43;;;3.60;99.70;;;;;;5071934;28;20509;-67
2022/01/28 04:59:59;;;;;;;12.97;5.17;;;3.60;99.70;;;;;;5071615;28;20479;-67
2022/01/28 05:02:51;;;;;;;14.07;5.13;;;3.70;99.70;;;;;;5071879;28;20933;-67
2022/01/28 05:05:45;;;;;;;13.20;5.27;;;3.70;99.70;;;;;;5071609;28;20450;-67
2022/01/28 05:08:48;;;;;;;13.23;5.30;;;3.70;99.70;;;;;;5071833;28;20443;-67
2022/01/28 05:14:14;;;;;;;10.80;5.30;;;3.50;99.70;;;;;;5070710;28;20496;-68
2022/01/28 05:25:44;;;;;;;13.10;5.10;;;3.30;99.70;;;;;;5071452;28;20449;-67
2022/01/28 05:28:14;;;;;;;12.83;5.53;;;3.20;99.70;;;;;;5071124;28;20443;-67
2022/01/28 05:30:40;;;;;;;14.00;5.47;;;3.30;99.70;;;;;;5071613;28;20443;-68
2022/01/28 05:33:08;;;;;;;11.87;5.10;;;3.30;99.70;;;;;;5071376;28;20447;-67
2022/01/28 05:35:35;;;;;;;8.97;4.43;;;3.30;99.70;;;;;;5071298;28;20826;-67
2022/01/28 05:38:02;;;;;;;13.70;5.03;;;3.20;99.70;;;;;;5070893;28;20478;-67
2022/01/28 05:40:28;;;;;;;13.43;5.10;;;3.30;99.70;;;;;;5071355;28;20851;-67
2022/01/28 05:42:55;;;;;;;12.40;5.30;;;3.30;99.70;;;;;;5071327;28;20449;-68
2022/01/28 05:45:22;;;;;;;12.33;5.40;;;3.30;99.70;;;;;;5071514;28;20438;-67
2022/01/28 05:47:48;;;;;;;11.87;5.27;;;3.10;99.70;;;;;;5070691;28;20854;-66
2022/01/28 05:50:16;;;;;;;14.20;5.63;;;3.10;99.70;;;;;;5071373;28;20447;-66
2022/01/28 05:52:43;;;;;;;13.50;4.77;;;3.10;99.70;;;;;;5071147;28;20443;-67
2022/01/28 05:55:10;;;;;;;11.30;5.50;;;3.20;99.70;;;;;;5071167;28;20454;-67
2022/01/28 05:57:37;;;;;;;18.13;5.60;;;3.20;99.70;;;;;;5070739;28;20501;-67
2022/01/28 06:00:05;;;;;;;12.83;5.23;;;3.10;99.70;;;;;;5070790;28;20474;-67
2022/01/28 06:02:32;;;;;;;13.60;5.60;;;3.10;99.70;;;;;;5071043;28;20833;-67
2022/01/28 06:04:59;;;;;;;15.50;5.60;;;3.20;99.70;;;;;;5071227;28;20443;-67
2022/01/28 06:07:27;;;;;;;14.40;6.37;;;3.20;99.70;;;;;;5070497;28;20470;-68
2022/01/28 06:09:53;;;;;;;18.93;6.60;;;3.10;99.70;;;;;;5070755;28;20446;-67
2022/01/28 06:12:21;;;;;;;16.97;6.23;;;3.10;99.70;;;;;;5071005;28;20446;-67
2022/01/28 06:14:47;;;;;;;15.00;5.50;;;3.10;99.70;;;;;;5071088;28;20479;-67
2022/01/28 06:17:14;;;;;;;14.50;5.90;;;3.10;99.70;;;;;;5070951;28;20489;-67
2022/01/28 06:19:41;;;;;;;12.63;5.70;;;3.10;99.70;;;;;;5070448;28;20479;-67
2022/01/28 06:22:07;;;;;;;11.40;5.70;;;3.10;99.70;;;;;;5070744;28;20504;-67
2022/01/28 06:24:35;;;;;;;16.30;6.00;;;3.10;99.70;;;;;;5070984;28;20795;-67
2022/01/28 06:27:02;;;;;;;14.20;5.90;;;3.10;99.70;;;;;;5070656;28;20557;-68
2022/01/28 06:29:29;;;;;;;15.60;5.77;;;3.00;99.70;;;;;;5070494;28;20434;-67
2022/01/28 06:31:56;;;;;;;14.30;5.83;;;3.00;99.70;;;;;;5070115;28;20451;-67
2022/01/28 06:34:23;;;;;;;16.67;5.83;;;3.00;99.70;;;;;;5070059;28;20457;-66
2022/01/28 06:36:50;;;;;;;13.97;6.30;;;3.00;99.70;;;;;;5070130;28;21072;-67
2022/01/28 06:39:16;;;;;;;15.30;6.20;;;3.00;99.70;;;;;;5070137;28;20570;-67
2022/01/28 06:41:45;;;;;;;14.50;5.70;;;3.00;99.70;;;;;;5070332;28;20449;-63
2022/01/28 06:44:12;;;;;;;13.57;5.47;;;3.10;99.70;;;;;;5070575;28;20443;-67
2022/01/28 06:46:38;;;;;;;13.27;5.60;;;3.10;99.70;;;;;;5070566;28;20459;-67
2022/01/28 06:49:05;;;;;;;14.20;6.30;;;3.10;99.70;;;;;;5069983;28;20438;-67
2022/01/28 06:51:34;;;;;;;14.60;6.10;;;3.10;99.70;;;;;;5070637;28;20817;-67
2022/01/28 06:54:01;;;;;;;13.93;6.03;;;3.10;99.70;;;;;;5070528;28;20446;-67
2022/01/28 06:56:28;;;;;;;13.80;5.47;;;3.10;99.70;;;;;;5070394;28;20462;-67
2022/01/28 06:58:56;;;;;;;12.33;5.20;;;3.20;99.70;;;;;;5070009;28;20532;-67
2022/01/28 07:01:23;;;;;;;16.87;6.23;;;3.10;99.70;;;;;;5070455;28;20465;-67
2022/01/28 07:03:49;;;;;;;13.40;5.63;;;3.00;99.70;;;;;;5070374;28;20439;-67
2022/01/28 07:06:16;;;;;;;14.10;5.60;;;3.00;99.70;;;;;;5069810;28;20805;-67
2022/01/28 07:08:43;;;;;;;16.73;6.10;;;3.10;99.70;;;;;;5070486;28;20438;-67
2022/01/28 07:11:10;;;;;;;13.03;5.37;;;3.10;99.70;;;;;;5068381;28;20458;-67
2022/01/28 07:13:37;;;;;;;19.10;5.90;;;3.10;99.70;;;;;;5072384;28;20478;-67
2022/01/28 07:16:06;;;;;;;12.50;6.40;;;3.30;99.70;;;;;;5073279;28;20463;-67
2022/01/28 07:18:33;;;;;;;15.27;6.33;;;3.30;99.70;;;;;;5071101;28;20474;-67
2022/01/28 07:20:59;;;;;;;14.13;6.00;;;3.30;99.70;;;;;;5071808;28;20476;-67
2022/01/28 07:23:26;;;;;;;14.37;6.33;;;3.40;99.70;;;;;;5073122;28;20508;-67
2022/01/28 07:25:53;;;;;;;14.70;5.90;;;3.30;99.70;;;;;;5069024;28;20989;-67
2022/01/28 07:28:22;;;;;;;17.87;7.00;;;3.40;99.70;;;;;;5064668;28;20448;-67
2022/01/28 07:30:49;;;;;;;14.60;6.73;;;3.40;99.70;;;;;;5069900;28;20976;-67
2022/01/28 07:33:17;;;;;;;15.53;6.63;;;3.30;99.70;;;;;;5070311;28;20485;-67
2022/01/28 07:35:43;;;;;;;13.47;5.63;;;3.30;99.70;;;;;;5072624;28;20439;-67
2022/01/28 07:38:10;;;;;;;14.00;5.73;;;3.40;99.70;;;;;;5066871;28;21012;-67
2022/01/28 07:40:37;;;;;;;15.30;6.00;;;3.30;99.70;;;;;;5070762;28;20482;-67
2022/01/28 07:43:04;;;;;;;15.03;6.13;;;3.30;99.70;;;;;;5070024;28;20451;-67
2022/01/28 07:45:31;;;;;;;14.87;6.30;;;3.30;99.70;;;;;;5076369;28;20455;-67
2022/01/28 07:47:57;;;;;;;16.07;6.50;;;3.20;99.70;;;;;;5073712;28;20448;-67
2022/01/28 07:50:25;;;;;;;20.20;6.77;;;3.30;99.70;;;;;;5072084;28;20848;-67
2022/01/28 07:52:52;;;;;;;15.33;6.30;;;3.30;99.70;;;;;;5071504;28;20454;-67
2022/01/28 07:55:20;;;;;;;14.37;6.13;;;3.40;99.70;;;;;;5073020;28;20439;-67
2022/01/28 07:57:46;;;;;;;16.47;6.40;;;3.30;99.70;;;;;;5067477;28;20863;-65
2022/01/28 08:00:16;;;;;;;17.67;6.50;;;3.40;99.70;;;;;;5073833;28;20475;-67
2022/01/28 08:02:43;;;;;;;14.37;6.00;;;3.40;99.70;;;;;;5073583;28;20934;-67
2022/01/28 08:05:10;;;;;;;14.33;5.80;;;3.60;99.70;;;;;;5069739;28;20443;-65
2022/01/28 08:07:38;;;;;;;17.87;6.67;;;3.50;99.70;;;;;;5072288;28;20922;-67
2022/01/28 08:10:06;;;;;;;17.47;6.10;;;3.70;99.70;;;;;;5082896;28;20902;-67
2022/01/28 08:12:33;;;;;;;14.80;6.17;;;3.80;99.70;;;;;;5089163;28;20450;-67
2022/01/28 08:14:59;;;;;;;18.40;6.70;;;3.80;99.70;;;;;;5089984;28;20944;-66
2022/01/28 08:17:26;;;;;;;17.30;6.80;;;3.70;99.70;;;;;;5090733;28;20465;-67
2022/01/28 08:19:53;;;;;;;20.63;6.83;;;3.60;99.70;;;;;;5090177;28;20508;-67
2022/01/28 08:22:20;;;;;;;16.73;6.53;;;3.70;99.70;;;;;;5088530;28;20450;-67
2022/01/28 08:24:48;;;;;;;15.37;6.90;;;3.80;99.70;;;;;;5073524;28;20990;-66
2022/01/28 08:27:15;;;;;;;14.10;6.50;;;3.90;99.70;;;;;;5081966;28;20479;-67
2022/01/28 08:29:41;;;;;;;16.60;7.20;;;3.70;99.70;;;;;;5071882;28;21003;-67
2022/01/28 08:32:08;;;;;;;17.20;6.60;;;3.80;99.70;;;;;;5074194;28;20949;-67
2022/01/28 08:34:35;;;;;;;18.40;6.97;;;3.70;99.70;;;;;;5073413;28;20446;-67
2022/01/28 08:37:04;;;;;;;13.83;6.53;;;3.70;99.70;;;;;;5070748;28;21025;-67
2022/01/28 08:39:31;;;;;;;15.30;6.60;;;3.70;99.70;;;;;;5070065;28;20479;-67
2022/01/28 08:41:59;;;;;;;17.83;7.10;;;3.80;99.70;;;;;;5069939;28;20949;-67
2022/01/28 08:44:26;;;;;;;16.83;7.40;;;3.80;99.70;;;;;;5070265;28;20500;-68
2022/01/28 08:46:52;;;;;;;17.00;6.03;;;3.90;99.70;;;;;;5069876;28;20466;-67
2022/01/28 08:49:19;;;;;;;17.40;6.50;;;4.10;99.70;;;;;;5069985;28;20446;-67
2022/01/28 08:51:48;;;;;;;16.37;5.87;;;4.10;99.70;;;;;;5071248;28;20446;-67
2022/01/28 08:54:15;;;;;;;16.50;6.07;;;4.20;99.70;;;;;;5072028;28;21023;-67
2022/01/28 08:56:42;;;;;;;16.87;6.73;;;4.20;99.70;;;;;;5072073;28;20973;-67
2022/01/28 08:59:10;;;;;;;10.30;5.20;;;4.20;99.70;;;;;;5071892;28;20482;-66
2022/01/28 09:01:37;;;;;;;15.33;5.53;;;4.30;99.70;;;;;;5071744;28;20449;-67
2022/01/28 09:04:04;;;;;;;11.77;5.60;;;4.20;99.70;;;;;;5071880;28;20434;-67
2022/01/28 09:06:31;;;;;;;19.53;6.00;;;4.20;99.70;;;;;;5070223;28;20451;-67
2022/01/28 09:09:00;;;;;;;19.37;6.30;;;4.10;99.70;;;;;;5070966;28;20439;-67
2022/01/28 09:11:46;;;;;;;13.63;5.50;;;4.20;99.70;;;;;;5071484;28;20465;-67
2022/01/28 09:14:15;;;;;;;13.70;5.87;;;4.30;99.70;;;;;;5070829;28;20474;-67
2022/01/28 09:16:42;;;;;;;11.93;4.90;;;4.20;99.70;;;;;;5072595;28;20470;-67
2022/01/28 09:19:09;;;;;;;15.63;5.77;;;4.30;99.70;;;;;;5073541;28;20478;-67
2022/01/28 09:21:36;;;;;;;14.40;5.33;;;4.30;99.70;;;;;;5071933;28;20442;-67
2022/01/28 09:24:03;;;;;;;14.63;4.73;;;4.30;99.70;;;;;;5067499;28;20442;-67
2022/01/28 09:26:30;;;;;;;10.20;5.00;;;4.40;99.70;;;;;;5072885;28;20470;-67
2022/01/28 09:28:56;;;;;;;16.00;5.80;;;4.40;99.70;;;;;;5072281;28;20447;-67
2022/01/28 09:31:25;;;;;;;14.63;5.70;;;4.40;99.70;;;;;;5073266;28;20439;-67
2022/01/28 09:33:51;;;;;;;14.63;5.83;;;4.50;99.70;;;;;;5071676;28;20447;-67
2022/01/28 09:36:19;;;;;;;14.50;5.83;;;4.50;99.70;;;;;;5073642;28;20474;-67
2022/01/28 09:38:45;;;;;;;13.40;5.80;;;4.50;99.70;;;;;;5071983;28;21019;-67
2022/01/28 09:41:12;;;;;;;11.60;4.53;;;4.30;99.70;;;;;;5073370;28;21030;-67
2022/01/28 09:43:39;;;;;;;11.07;4.93;;;4.40;99.70;;;;;;5071795;28;20888;-67
2022/01/28 09:46:06;;;;;;;15.10;5.50;;;4.50;99.70;;;;;;5073267;28;20823;-67
2022/01/28 09:48:34;;;;;;;13.67;5.00;;;4.70;99.70;;;;;;5071997;28;20454;-67
2022/01/28 09:51:02;;;;;;;13.47;5.00;;;4.80;99.70;;;;;;5073175;28;21006;-67
2022/01/28 09:53:30;;;;;;;13.67;4.93;;;4.70;99.70;;;;;;5072171;28;20496;-66
2022/01/28 09:55:57;;;;;;;11.30;4.50;;;4.60;99.70;;;;;;5073349;28;20470;-67
2022/01/28 09:58:25;;;;;;;14.57;4.37;;;4.70;99.70;;;;;;5071105;28;20831;-66
2022/01/28 10:00:52;;;;;;;12.53;4.10;;;4.80;99.70;;;;;;5072115;28;20479;-67
2022/01/28 10:03:20;;;;;;;12.87;4.17;;;4.90;99.70;;;;;;5071271;28;20443;-67
2022/01/28 10:05:50;;;;;;;9.27;4.07;;;5.10;99.70;;;;;;5071022;28;20446;-67
2022/01/28 10:08:19;;;;;;;10.17;4.50;;;5.00;99.70;;;;;;5059973;28;20508;-67
2022/01/28 10:11:02;;;;;;;10.57;4.03;;;5.20;99.70;;;;;;5072648;28;20438;-67
2022/01/28 10:13:37;;;;;;;7.90;3.70;;;5.40;99.70;;;;;;5051845;28;21038;-67
2022/01/28 10:16:13;;;;;;;7.23;3.00;;;5.40;99.70;;;;;;5068783;28;20457;-67
2022/01/28 10:18:50;;;;;;;8.40;2.83;;;5.50;99.70;;;;;;5075290;28;20503;-67
2022/01/28 10:21:36;;;;;;;6.90;2.70;;;5.40;99.70;;;;;;5087488;28;20490;-66
2022/01/28 10:24:09;;;;;;;7.00;2.70;;;5.50;99.70;;;;;;5088683;28;20456;-65
2022/01/28 10:26:38;;;;;;;13.13;2.83;;;5.60;99.70;;;;;;5083535;22;20475;-64
2022/01/28 10:29:07;;;;;;;7.00;2.60;;;5.60;99.70;;;;;;5088128;28;20442;-65
2022/01/28 10:31:47;;;;;;;8.87;2.50;;;5.60;99.70;;;;;;5090009;28;20480;-65
2022/01/28 10:34:19;;;;;;;6.93;3.03;;;5.50;99.70;;;;;;5090737;28;20818;-65
2022/01/28 10:36:49;;;;;;;6.83;2.60;;;5.50;99.70;;;;;;5090786;28;20465;-65
2022/01/28 10:39:19;;;;;;;6.90;2.43;;;5.50;99.70;;;;;;5087386;28;20459;-65
2022/01/28 10:41:57;;;;;;;6.77;2.30;;;5.60;99.70;;;;;;5089338;28;20453;-65
2022/01/28 10:44:25;;;;;;;8.47;3.00;;;5.50;99.70;;;;;;5074721;28;20446;-64
2022/01/28 10:47:00;;;;;;;9.83;3.00;;;5.60;99.70;;;;;;5074677;28;20462;-65
2022/01/28 10:49:35;;;;;;;6.17;2.50;;;5.80;99.70;;;;;;5073850;28;20450;-64
2022/01/28 10:52:11;;;;;;;5.07;2.13;;;5.70;99.70;;;;;;5073387;28;20445;-65
2022/01/28 10:54:39;;;;;;;6.33;2.20;;;5.70;99.70;;;;;;5073462;28;20461;-64
2022/01/28 10:57:09;;;;;;;8.63;2.87;;;5.70;99.70;;;;;;5073261;28;20474;-65
2022/01/28 10:59:39;;;;;;;10.53;3.07;;;5.60;99.70;;;;;;5072948;28;20457;-65
2022/01/28 11:02:07;;;;;;;8.70;2.93;;;5.70;99.70;;;;;;5073209;28;20825;-64
2022/01/28 11:04:33;;;;;;;5.37;2.73;;;5.80;99.70;;;;;;5073600;28;20472;-65
2022/01/28 11:07:02;;;;;;;12.33;2.90;;;5.90;99.70;;;;;;5073445;28;20976;-64
2022/01/28 11:09:31;;;;;;;7.13;2.77;;;6.00;99.70;;;;;;5074016;28;20482;-65
2022/01/28 11:11:58;;;;;;;7.70;2.97;;;6.10;99.70;;;;;;5073210;28;20446;-65
2022/01/28 11:14:25;;;;;;;8.13;2.53;;;6.00;99.70;;;;;;5072298;28;20447;-64
2022/01/28 11:16:52;;;;;;;14.80;3.03;;;6.00;99.70;;;;;;5073573;28;20528;-64
2022/01/28 11:19:21;;;;;;;8.33;2.43;;;6.00;99.70;;;;;;5083493;28;20449;-65
2022/01/28 11:22:11;;;;;;;8.90;2.30;;;6.00;99.70;;;;;;5094178;28;20477;-65
2022/01/28 11:24:57;;;;;;;8.77;2.43;;;6.10;99.70;;;;;;5094434;28;20450;-65
2022/01/28 11:27:29;;;;;;;9.47;2.60;;;6.00;99.70;;;;;;5093890;28;20473;-63
2022/01/28 11:30:14;;;;;;;10.80;2.50;;;6.00;99.70;;;;;;5093681;28;20814;-65
2022/01/28 11:33:00;;;;;;;6.80;2.40;;;5.90;99.70;;;;;;5094283;28;20438;-65
2022/01/28 11:35:29;;;;;;;6.50;2.03;;;6.00;99.70;;;;;;5094225;28;20449;-65
2022/01/28 11:38:02;;;;;;;6.27;2.10;;;6.00;99.70;;;;;;5093581;28;20856;-65
2022/01/28 11:40:42;;;;;;;6.63;2.20;;;6.10;99.70;;;;;;5094040;28;20474;-65
2022/01/28 11:43:23;;;;;;;4.90;2.27;;;6.10;99.70;;;;;;5093693;28;20494;-65
2022/01/28 11:46:06;;;;;;;4.83;2.33;;;6.00;99.70;;;;;;5094265;28;20488;-65
2022/01/28 11:49:14;;;;;;;11.43;3.20;;;6.20;99.70;;;;;;5093347;28;20541;-65
2022/01/28 11:51:43;;;;;;;9.00;3.23;;;6.30;99.70;;;;;;5093981;28;20860;-64
2022/01/28 11:54:11;;;;;;;8.37;2.70;;;6.30;99.70;;;;;;5093637;28;20821;-65
2022/01/28 11:56:41;;;;;;;8.63;2.53;;;6.20;99.70;;;;;;5092447;28;20469;-65
2022/01/28 11:59:08;;;;;;;6.50;2.63;;;6.10;99.70;;;;;;5093284;28;20839;-65
2022/01/28 12:02:11;;;;;;;5.43;2.80;;;6.10;99.70;;;;;;5093451;28;20481;-64
2022/01/28 12:04:40;;;;;;;8.53;2.63;;;6.10;99.70;;;;;;5092535;28;20442;-65
2022/01/28 12:07:10;;;;;;;5.10;2.37;;;6.00;99.70;;;;;;5091934;28;20877;-66
2022/01/28 12:09:38;;;;;;;6.10;2.50;;;6.10;99.70;;;;;;5082631;28;20455;-66
2022/01/28 12:12:10;;;;;;;5.97;2.57;;;6.20;99.70;;;;;;5074385;28;20496;-65
2022/01/28 12:15:13;;;;;;;7.40;2.80;;;6.30;99.70;;;;;;5091865;28;20888;-66
2022/01/28 12:17:45;;;;;;;7.90;2.60;;;6.30;99.70;;;;;;5077624;28;20845;-63
2022/01/28 12:20:36;;;;;;;6.63;2.63;;;6.20;99.70;;;;;;5091314;28;20477;-65
2022/01/28 12:23:30;;;;;;;4.50;2.40;;;6.10;99.70;;;;;;5081441;28;20971;-66
2022/01/28 12:25:59;;;;;;;6.10;2.40;;;6.10;99.70;;;;;;5080122;28;20461;-65
2022/01/28 12:28:42;;;;;;;5.33;2.40;;;5.90;99.70;;;;;;5077105;28;20536;-65
2022/01/28 12:31:13;;;;;;;11.20;4.93;;;5.80;99.70;;;;;;5071953;28;20795;-65
2022/01/28 12:33:42;;;;;;;6.37;2.30;;;5.60;99.70;;;;;;5071739;28;20541;-65
2022/01/28 12:36:11;;;;;;;8.53;3.00;;;5.50;99.70;;;;;;5082258;28;20447;-65
2022/01/28 12:38:42;;;;;;;6.43;2.30;;;5.50;99.70;;;;;;5082459;28;20682;-64
2022/01/28 12:41:10;;;;;;;5.60;2.63;;;5.50;99.70;;;;;;5081956;28;20498;-64
2022/01/28 12:43:40;;;;;;;10.47;2.40;;;5.70;99.70;;;;;;5081517;28;20446;-66
2022/01/28 12:46:08;;;;;;;5.27;3.13;;;5.80;99.70;;;;;;5082034;28;20484;-66
2022/01/28 12:48:35;;;;;;;5.80;2.53;;;5.80;99.70;;;;;;5078292;28;20877;-65
2022/01/28 12:51:04;;;;;;;7.13;3.00;;;5.90;99.70;;;;;;5080799;28;20457;-65
2022/01/28 12:53:34;;;;;;;8.43;3.33;;;5.90;99.70;;;;;;5081588;28;20438;-64
2022/01/28 12:56:02;;;;;;;12.50;3.30;;;5.90;99.70;;;;;;5081016;28;21002;-66
2022/01/28 12:58:34;;;;;;;6.90;2.70;;;6.00;99.70;;;;;;5081346;28;20850;-67
2022/01/28 13:01:13;;;;;;;7.80;2.87;;;6.10;99.70;;;;;;5081587;28;20502;-64
2022/01/28 13:03:48;;;;;;;6.57;2.80;;;6.10;99.70;;;;;;5076426;28;20454;-63
2022/01/28 13:06:27;;;;;;;5.80;2.70;;;6.10;99.70;;;;;;5070732;28;20476;-63
2022/01/28 13:08:54;;;;;;;15.30;2.73;;;6.10;99.70;;;;;;5079757;28;20464;-64
2022/01/28 13:11:21;;;;;;;6.97;2.90;;;6.30;99.70;;;;;;5073586;28;20459;-64
2022/01/28 13:13:50;;;;;;;8.53;3.90;;;6.20;99.70;;;;;;5080158;28;20439;-65
2022/01/28 13:16:30;;;;;;;7.30;3.07;;;6.10;99.70;;;;;;5081078;28;20439;-65
2022/01/28 13:18:57;;;;;;;11.07;3.83;;;6.00;99.70;;;;;;5082201;28;20512;-66
2022/01/28 13:21:24;;;;;;;9.80;3.80;;;6.00;99.70;;;;;;5078305;28;20532;-64
2022/01/28 13:24:09;;;;;;;8.23;3.80;;;6.00;99.70;;;;;;5074085;28;20450;-65
2022/01/28 13:26:37;;;;;;;11.23;3.77;;;5.90;99.70;;;;;;5072828;28;20832;-63
2022/01/28 13:29:06;;;;;;;10.93;4.33;;;6.00;99.70;;;;;;5076408;28;20459;-65
2022/01/28 13:31:35;;;;;;;9.00;3.80;;;6.00;99.70;;;;;;5076323;28;20520;-65
2022/01/28 13:34:05;;;;;;;8.43;3.93;;;5.80;99.70;;;;;;5073720;28;20440;-65
2022/01/28 13:36:45;;;;;;;7.90;3.40;;;5.80;99.70;;;;;;5083787;28;20453;-65
2022/01/28 13:39:17;;;;;;;9.50;3.70;;;5.80;99.70;;;;;;5070159;28;20945;-65
2022/01/28 13:41:45;;;;;;;10.47;3.50;;;5.80;99.70;;;;;;5071235;28;20482;-64
2022/01/28 13:44:26;;;;;;;13.37;5.57;;;5.80;99.70;;;;;;5070338;28;20459;-64
2022/01/28 13:47:03;;;;;;;16.90;7.10;;;5.80;99.70;;;;;;5070788;28;20463;-64
2022/01/28 13:49:31;;;;;;;12.27;5.30;;;5.60;99.70;;;;;;5070411;28;20465;-64